METAR Formatted Surface Weather Observation
Issued by NWS

Home | Current Version | Previous Version | Text Only | Print | Product List | Glossary On
Versions: 1 2
SAUS41 KAKQ 131401
METAR KNEL 131400Z AUTO 18008KT 10SM CLR 21/16 A2955 RMK AO2 SLP006
T02110156 $ is the U.S. government's official web portal to all federal, state and local government web resources and services.